Time;durP1;ratioP1;P1;durP2;ratioP2;P2;SDS_P1;SDS_P2;PMS_P1;PMS_P2;Temp;Humidity;BMP_temperature;BMP_pressure;BME280_temperature;BME280_humidity;BME280_pressure;Samples;Min_cycle;Max_cycle;Signal;HPM_P1;HPM_P2
2022/12/12 00:01:29;;;;;;;29.75;11.95;;;;;;;;;;5098781;28;20139;-77
2022/12/12 00:03:56;;;;;;;31.80;12.32;;;;;;;;;;5100937;27;20549;-77
2022/12/12 00:06:23;;;;;;;28.23;11.90;;;;;;;;;;5097566;28;20087;-77
2022/12/12 00:08:49;;;;;;;31.23;13.05;;;;;;;;;;5097408;27;20522;-77
2022/12/12 00:11:16;;;;;;;31.65;13.38;;;;;;;;;;5087848;28;20048;-77
2022/12/12 00:13:43;;;;;;;26.80;12.23;;;;;;;;;;5103457;28;20503;-77
2022/12/12 00:16:09;;;;;;;30.42;13.25;;;;;;;;;;5095330;28;20925;-78
2022/12/12 00:18:36;;;;;;;28.00;12.65;;;;;;;;;;5105807;27;20064;-78
2022/12/12 00:21:05;;;;;;;28.80;12.02;;;;;;;;;;5102282;28;20063;-78
2022/12/12 00:23:31;;;;;;;28.60;13.18;;;;;;;;;;5110637;28;20055;-78
2022/12/12 00:25:59;;;;;;;35.28;12.98;;;;;;;;;;5083499;28;20049;-77
2022/12/12 00:28:26;;;;;;;28.38;12.82;;;;;;;;;;5106741;28;20066;-78
2022/12/12 00:30:52;;;;;;;31.25;13.25;;;;;;;;;;5093902;27;20155;-78
2022/12/12 00:33:19;;;;;;;29.00;13.10;;;;;;;;;;5107396;27;20032;-78
2022/12/12 00:35:50;;;;;;;30.92;12.32;;;;;;;;;;5100823;28;20146;-78
2022/12/12 00:38:17;;;;;;;30.13;12.75;;;;;;;;;;5106662;28;20090;-78
2022/12/12 00:40:45;;;;;;;29.95;12.25;;;;;;;;;;5106181;28;20107;-78
2022/12/12 00:43:11;;;;;;;31.23;13.40;;;;;;;;;;5093112;28;20148;-77
2022/12/12 00:45:38;;;;;;;31.05;12.82;;;;;;;;;;5099791;27;20062;-77
2022/12/12 00:48:05;;;;;;;31.55;12.98;;;;;;;;;;5105349;28;20045;-78
2022/12/12 00:50:32;;;;;;;34.53;12.50;;;;;;;;;;5081475;28;20076;-78
2022/12/12 00:52:59;;;;;;;32.30;13.80;;;;;;;;;;5077813;28;20431;-78
2022/12/12 00:55:25;;;;;;;36.05;13.80;;;;;;;;;;5106221;28;20488;-78
2022/12/12 00:57:52;;;;;;;30.60;13.48;;;;;;;;;;5101026;28;20090;-78
2022/12/12 01:00:19;;;;;;;27.38;12.95;;;;;;;;;;5082650;28;20082;-78
2022/12/12 01:02:46;;;;;;;28.95;12.68;;;;;;;;;;5106769;28;20071;-78
2022/12/12 01:05:13;;;;;;;32.17;13.48;;;;;;;;;;5097738;28;20151;-77
2022/12/12 01:07:41;;;;;;;32.72;12.80;;;;;;;;;;5101406;28;20125;-78
2022/12/12 01:10:08;;;;;;;31.73;13.40;;;;;;;;;;5077235;28;20048;-78
2022/12/12 01:12:35;;;;;;;28.27;12.73;;;;;;;;;;5107179;27;20048;-78
2022/12/12 01:15:02;;;;;;;28.92;13.55;;;;;;;;;;5104550;28;20056;-78
2022/12/12 01:17:34;;;;;;;32.10;13.27;;;;;;;;;;5103532;28;20503;-78
2022/12/12 01:20:01;;;;;;;31.00;12.80;;;;;;;;;;5091347;28;20056;-78
2022/12/12 01:22:28;;;;;;;30.50;12.80;;;;;;;;;;5083277;28;20043;-77
2022/12/12 01:24:55;;;;;;;34.00;13.23;;;;;;;;;;5107639;27;20056;-77
2022/12/12 01:27:22;;;;;;;30.30;13.20;;;;;;;;;;5095426;28;20057;-77
2022/12/12 01:29:48;;;;;;;32.10;13.45;;;;;;;;;;5107244;28;20995;-78
2022/12/12 01:32:15;;;;;;;29.23;12.48;;;;;;;;;;5083914;28;20326;-77
2022/12/12 01:34:41;;;;;;;31.35;13.80;;;;;;;;;;5098582;28;20055;-78
2022/12/12 01:37:07;;;;;;;34.92;15.05;;;;;;;;;;5084649;28;20052;-77
2022/12/12 01:39:34;;;;;;;28.77;13.18;;;;;;;;;;5103574;27;20052;-77
2022/12/12 01:42:00;;;;;;;29.50;14.15;;;;;;;;;;5106277;28;20067;-77
2022/12/12 01:44:38;;;;;;;32.42;13.30;;;;;;;;;;5106347;28;20572;-77
2022/12/12 01:47:04;;;;;;;31.13;13.13;;;;;;;;;;5097579;28;20517;-77
2022/12/12 01:49:32;;;;;;;29.90;13.52;;;;;;;;;;5095436;28;20052;-77
2022/12/12 01:52:02;;;;;;;32.35;13.73;;;;;;;;;;5101217;27;20056;-77
2022/12/12 01:54:33;;;;;;;33.28;14.02;;;;;;;;;;5093022;28;20059;-77
2022/12/12 01:57:02;;;;;;;34.92;13.90;;;;;;;;;;5105470;27;20102;-77
2022/12/12 01:59:28;;;;;;;31.48;14.15;;;;;;;;;;5110206;28;20131;-77
2022/12/12 02:01:55;;;;;;;27.73;12.77;;;;;;;;;;5102275;28;20075;-77
2022/12/12 02:04:22;;;;;;;31.75;13.52;;;;;;;;;;5102115;28;20113;-77
2022/12/12 02:06:49;;;;;;;31.35;14.43;;;;;;;;;;5100522;27;20049;-76
2022/12/12 02:09:16;;;;;;;31.60;13.75;;;;;;;;;;5108695;28;20048;-77
2022/12/12 02:11:47;;;;;;;33.88;13.15;;;;;;;;;;5103948;27;20048;-77
2022/12/12 02:14:16;;;;;;;30.02;13.57;;;;;;;;;;5106139;28;20659;-77
2022/12/12 02:16:49;;;;;;;33.88;13.40;;;;;;;;;;5094220;28;20139;-77
2022/12/12 02:19:34;;;;;;;30.80;13.00;;;;;;;;;;5098683;27;20057;-77
2022/12/12 02:22:08;;;;;;;32.95;13.55;;;;;;;;;;5096724;28;20088;-77
2022/12/12 02:24:40;;;;;;;31.48;13.90;;;;;;;;;;5090320;28;20500;-77
2022/12/12 02:27:26;;;;;;;32.45;13.57;;;;;;;;;;5110317;27;20052;-77
2022/12/12 02:30:11;;;;;;;29.67;12.73;;;;;;;;;;5090516;27;20103;-77
2022/12/12 02:32:40;;;;;;;33.30;13.18;;;;;;;;;;5095705;28;20083;-77
2022/12/12 02:35:07;;;;;;;31.67;14.13;;;;;;;;;;5100026;28;20682;-77
2022/12/12 02:38:08;;;;;;;35.70;13.38;;;;;;;;;;5102319;28;20056;-77
2022/12/12 02:40:53;;;;;;;30.85;13.07;;;;;;;;;;5046239;28;20057;-77
2022/12/12 02:43:35;;;;;;;31.17;13.65;;;;;;;;;;5077312;28;20055;-77
2022/12/12 02:46:31;;;;;;;30.65;12.35;;;;;;;;;;5108026;28;20052;-77
2022/12/12 02:49:04;;;;;;;35.38;13.15;;;;;;;;;;5091454;28;20052;-77
2022/12/12 02:51:31;;;;;;;31.75;13.35;;;;;;;;;;5100787;28;20052;-77
2022/12/12 02:53:58;;;;;;;31.15;12.65;;;;;;;;;;5093421;27;20578;-77
2022/12/12 02:56:40;;;;;;;31.42;12.85;;;;;;;;;;5075354;28;20499;-77
2022/12/12 02:59:07;;;;;;;30.50;13.23;;;;;;;;;;5104458;28;20657;-77
2022/12/12 03:01:33;;;;;;;30.35;13.35;;;;;;;;;;5106741;28;20523;-77
2022/12/12 03:09:36;;;;;;;30.02;12.90;;;;;;;;;;5106251;27;20072;-77
2022/12/12 03:12:05;;;;;;;30.83;13.57;;;;;;;;;;5109396;28;20055;-77
2022/12/12 03:14:42;;;;;;;33.58;13.02;;;;;;;;;;5101715;28;20091;-77
2022/12/12 03:17:14;;;;;;;30.83;13.15;;;;;;;;;;5105912;28;20052;-77
2022/12/12 03:19:47;;;;;;;28.98;12.00;;;;;;;;;;5108291;27;20151;-77
2022/12/12 03:22:16;;;;;;;34.28;13.40;;;;;;;;;;5094909;27;20132;-77
2022/12/12 03:24:45;;;;;;;26.95;11.80;;;;;;;;;;5102090;28;20066;-77
2022/12/12 03:27:19;;;;;;;30.20;13.35;;;;;;;;;;5100206;28;20986;-77
2022/12/12 03:29:49;;;;;;;32.00;13.48;;;;;;;;;;5083360;28;20056;-77
2022/12/12 03:32:22;;;;;;;30.20;13.07;;;;;;;;;;5103794;28;20063;-78
2022/12/12 03:34:51;;;;;;;31.83;13.00;;;;;;;;;;5100109;27;20253;-77
2022/12/12 03:37:19;;;;;;;29.83;13.43;;;;;;;;;;5112363;28;20597;-77
2022/12/12 03:39:49;;;;;;;35.40;13.77;;;;;;;;;;5104310;28;20048;-77
2022/12/12 03:42:23;;;;;;;29.60;12.98;;;;;;;;;;5110773;28;20537;-77
2022/12/12 03:45:05;;;;;;;33.58;12.73;;;;;;;;;;5104335;27;20060;-77
2022/12/12 03:47:34;;;;;;;32.55;13.50;;;;;;;;;;5109401;27;20048;-78
2022/12/12 03:50:18;;;;;;;33.58;13.88;;;;;;;;;;5109691;28;20103;-78
2022/12/12 03:52:57;;;;;;;32.17;13.63;;;;;;;;;;5101180;28;20127;-77
2022/12/12 03:55:27;;;;;;;32.38;12.68;;;;;;;;;;5085263;28;20134;-78
2022/12/12 03:57:58;;;;;;;32.55;13.93;;;;;;;;;;5095172;28;20143;-77
2022/12/12 04:00:25;;;;;;;35.28;14.75;;;;;;;;;;5106640;28;20045;-78
2022/12/12 04:02:57;;;;;;;30.92;12.07;;;;;;;;;;5103555;28;20579;-78
2022/12/12 04:05:27;;;;;;;32.78;13.43;;;;;;;;;;5103938;28;20080;-78
2022/12/12 04:07:58;;;;;;;35.72;15.23;;;;;;;;;;5100924;28;20057;-78
2022/12/12 04:13:12;;;;;;;32.60;13.50;;;;;;;;;;5108885;27;43311;-78
2022/12/12 04:15:58;;;;;;;34.08;12.95;;;;;;;;;;5101204;27;20051;-78
2022/12/12 04:18:25;;;;;;;31.85;13.13;;;;;;;;;;5103314;28;20052;-78
2022/12/12 04:24:03;;;;;;;31.70;12.40;;;;;;;;;;5106832;28;20084;-78
2022/12/12 04:26:39;;;;;;;30.75;13.50;;;;;;;;;;5109369;27;20109;-78
2022/12/12 04:29:22;;;;;;;33.63;13.55;;;;;;;;;;5096484;27;20048;-78
2022/12/12 04:31:55;;;;;;;36.58;14.45;;;;;;;;;;5107823;28;20277;-78
2022/12/12 04:34:24;;;;;;;36.35;14.65;;;;;;;;;;5090904;28;20471;-78
2022/12/12 04:36:51;;;;;;;34.28;12.82;;;;;;;;;;5103644;28;20059;-78
2022/12/12 04:39:18;;;;;;;34.67;13.70;;;;;;;;;;5111404;28;20084;-78
2022/12/12 04:41:47;;;;;;;28.33;13.30;;;;;;;;;;5099560;27;20105;-78
2022/12/12 04:44:14;;;;;;;33.90;14.63;;;;;;;;;;5093403;28;20056;-78
2022/12/12 04:46:41;;;;;;;35.58;14.05;;;;;;;;;;5106334;28;20075;-78
2022/12/12 04:49:13;;;;;;;36.42;14.73;;;;;;;;;;5099413;28;20084;-78
2022/12/12 04:51:42;;;;;;;35.92;13.90;;;;;;;;;;5108379;28;20123;-78
2022/12/12 04:54:15;;;;;;;36.92;13.90;;;;;;;;;;5080729;28;20048;-78
2022/12/12 04:56:44;;;;;;;37.08;15.00;;;;;;;;;;5098437;28;20089;-78
2022/12/12 04:59:10;;;;;;;33.88;13.57;;;;;;;;;;5096988;28;20052;-78
2022/12/12 05:01:47;;;;;;;31.55;14.57;;;;;;;;;;5089530;28;20903;-78
2022/12/12 05:04:26;;;;;;;30.67;13.45;;;;;;;;;;5098049;28;20145;-78
2022/12/12 05:06:55;;;;;;;32.85;13.40;;;;;;;;;;5081831;28;20055;-78
2022/12/12 05:09:21;;;;;;;35.13;14.95;;;;;;;;;;5100145;28;20155;-78
2022/12/12 05:11:48;;;;;;;33.30;13.55;;;;;;;;;;5103242;28;20138;-78
2022/12/12 05:14:15;;;;;;;31.67;13.85;;;;;;;;;;5089702;28;20493;-78
2022/12/12 05:16:46;;;;;;;33.83;14.00;;;;;;;;;;5097448;28;20573;-78
2022/12/12 05:19:13;;;;;;;30.45;13.63;;;;;;;;;;5089391;28;20102;-78
2022/12/12 05:21:39;;;;;;;35.10;13.57;;;;;;;;;;5102696;27;20037;-78
2022/12/12 05:24:06;;;;;;;34.08;14.15;;;;;;;;;;5098491;27;20056;-78
2022/12/12 05:26:33;;;;;;;33.58;13.82;;;;;;;;;;5089472;28;20520;-79
2022/12/12 05:29:00;;;;;;;33.55;13.88;;;;;;;;;;5109311;28;20079;-78
2022/12/12 05:31:32;;;;;;;38.28;14.63;;;;;;;;;;5104597;27;20056;-79
2022/12/12 05:33:59;;;;;;;36.60;15.52;;;;;;;;;;5103831;28;20056;-79
2022/12/12 05:36:25;;;;;;;39.08;14.77;;;;;;;;;;5108944;27;20112;-79
2022/12/12 05:38:51;;;;;;;37.58;14.77;;;;;;;;;;5094235;28;20040;-78
2022/12/12 05:41:18;;;;;;;42.53;15.43;;;;;;;;;;5097640;27;20113;-78
2022/12/12 05:43:44;;;;;;;42.17;15.90;;;;;;;;;;5108887;28;20572;-78
2022/12/12 05:46:10;;;;;;;42.00;16.05;;;;;;;;;;5081253;28;20604;-78
2022/12/12 05:48:37;;;;;;;38.92;15.35;;;;;;;;;;5112227;27;20054;-79
2022/12/12 05:51:03;;;;;;;35.53;14.95;;;;;;;;;;5110250;28;20148;-78
2022/12/12 05:53:30;;;;;;;37.25;15.13;;;;;;;;;;5104716;28;20553;-78
2022/12/12 05:55:56;;;;;;;38.28;15.05;;;;;;;;;;5109270;27;20116;-79
2022/12/12 05:58:23;;;;;;;39.00;15.30;;;;;;;;;;5101067;28;20048;-79
2022/12/12 06:00:50;;;;;;;36.15;13.57;;;;;;;;;;5104146;28;20571;-79
2022/12/12 06:03:17;;;;;;;33.95;14.32;;;;;;;;;;5092286;28;20151;-79
2022/12/12 06:05:43;;;;;;;34.22;13.77;;;;;;;;;;5073376;28;20044;-79
2022/12/12 06:08:10;;;;;;;34.75;14.45;;;;;;;;;;5101449;28;20145;-79
2022/12/12 06:10:36;;;;;;;40.13;14.50;;;;;;;;;;5098609;28;20056;-78
2022/12/12 06:13:03;;;;;;;34.40;13.75;;;;;;;;;;5095371;28;20044;-78
2022/12/12 06:15:29;;;;;;;42.00;14.40;;;;;;;;;;5103511;28;20059;-78
2022/12/12 06:17:57;;;;;;;35.72;13.93;;;;;;;;;;5101919;27;20052;-78
2022/12/12 06:20:23;;;;;;;38.83;14.40;;;;;;;;;;5079619;28;20458;-78
2022/12/12 06:22:50;;;;;;;35.38;14.35;;;;;;;;;;5105333;28;20052;-78
2022/12/12 06:25:19;;;;;;;35.53;14.63;;;;;;;;;;5102718;28;20051;-78
2022/12/12 06:27:45;;;;;;;38.90;16.83;;;;;;;;;;5102960;28;20056;-78
2022/12/12 06:30:12;;;;;;;38.22;15.07;;;;;;;;;;5084661;27;20451;-78
2022/12/12 06:32:38;;;;;;;41.40;15.27;;;;;;;;;;5101657;28;20056;-78
2022/12/12 06:35:05;;;;;;;43.90;15.48;;;;;;;;;;5110746;28;20086;-78
2022/12/12 06:37:31;;;;;;;31.58;13.60;;;;;;;;;;5100098;27;20151;-78
2022/12/12 06:39:57;;;;;;;34.58;14.48;;;;;;;;;;5098910;28;20385;-78
2022/12/12 06:42:24;;;;;;;34.88;14.05;;;;;;;;;;5102841;28;20189;-77
2022/12/12 06:44:50;;;;;;;33.25;13.85;;;;;;;;;;5102839;27;20063;-77
2022/12/12 06:47:17;;;;;;;34.47;13.98;;;;;;;;;;5100939;28;20056;-77
2022/12/12 06:49:43;;;;;;;34.38;13.00;;;;;;;;;;5110839;28;20139;-77
2022/12/12 06:52:09;;;;;;;44.15;14.95;;;;;;;;;;5107449;28;20510;-77
2022/12/12 06:54:36;;;;;;;38.63;14.45;;;;;;;;;;5094232;28;20048;-78
2022/12/12 06:57:02;;;;;;;34.63;14.45;;;;;;;;;;5095841;27;20063;-77
2022/12/12 06:59:29;;;;;;;32.78;13.57;;;;;;;;;;5098587;28;20148;-77
2022/12/12 07:01:56;;;;;;;39.30;14.80;;;;;;;;;;5083083;28;20541;-77
2022/12/12 07:04:24;;;;;;;36.17;14.25;;;;;;;;;;5106702;28;20143;-77
2022/12/12 07:06:51;;;;;;;40.92;15.45;;;;;;;;;;5103297;28;20060;-77
2022/12/12 07:09:18;;;;;;;36.97;14.85;;;;;;;;;;5102716;28;20078;-77
2022/12/12 07:11:44;;;;;;;35.35;14.40;;;;;;;;;;5076580;28;20044;-77
2022/12/12 07:14:11;;;;;;;34.22;13.82;;;;;;;;;;5092483;28;20415;-78
2022/12/12 07:16:37;;;;;;;34.75;14.50;;;;;;;;;;5092701;28;20813;-77
2022/12/12 07:19:03;;;;;;;35.55;13.75;;;;;;;;;;5107899;28;20056;-78
2022/12/12 07:21:30;;;;;;;44.03;14.57;;;;;;;;;;5105734;27;20151;-77
2022/12/12 07:23:56;;;;;;;36.03;13.63;;;;;;;;;;5100069;27;20583;-78
2022/12/12 07:26:23;;;;;;;34.28;13.68;;;;;;;;;;5077596;27;20052;-77
2022/12/12 07:28:50;;;;;;;35.80;14.05;;;;;;;;;;5085117;28;20063;-77
2022/12/12 07:31:18;;;;;;;35.03;13.85;;;;;;;;;;5094896;28;20075;-77
2022/12/12 07:33:45;;;;;;;39.38;14.52;;;;;;;;;;5098183;27;20048;-77
2022/12/12 07:36:12;;;;;;;35.28;13.43;;;;;;;;;;5100733;28;20105;-77
2022/12/12 07:38:39;;;;;;;38.08;13.23;;;;;;;;;;5093711;27;20470;-77
2022/12/12 07:41:06;;;;;;;32.15;13.15;;;;;;;;;;5107066;28;20562;-77
2022/12/12 07:43:33;;;;;;;38.33;15.68;;;;;;;;;;5089470;28;20078;-77
2022/12/12 07:46:08;;;;;;;37.58;14.55;;;;;;;;;;5096445;28;20131;-77
2022/12/12 07:48:35;;;;;;;40.30;14.60;;;;;;;;;;5075622;28;20052;-77
2022/12/12 07:51:02;;;;;;;40.85;15.63;;;;;;;;;;5094305;27;20139;-77
2022/12/12 07:53:28;;;;;;;33.15;14.73;;;;;;;;;;5096325;27;20143;-77
2022/12/12 07:55:55;;;;;;;37.58;15.13;;;;;;;;;;5096038;28;20059;-77
2022/12/12 07:58:21;;;;;;;40.28;14.73;;;;;;;;;;5098171;27;20147;-77
2022/12/12 08:00:48;;;;;;;36.63;14.52;;;;;;;;;;5100997;28;20056;-76
2022/12/12 08:03:14;;;;;;;35.20;14.77;;;;;;;;;;5098821;28;20060;-76
2022/12/12 08:05:41;;;;;;;40.13;15.35;;;;;;;;;;5079752;28;20063;-77
2022/12/12 08:08:08;;;;;;;35.42;14.77;;;;;;;;;;5093700;28;20052;-77
2022/12/12 08:10:37;;;;;;;37.47;15.18;;;;;;;;;;5101758;27;20044;-78
2022/12/12 08:13:03;;;;;;;37.97;14.38;;;;;;;;;;5097018;28;20048;-77
2022/12/12 08:15:29;;;;;;;41.75;15.57;;;;;;;;;;5098466;27;20510;-77
2022/12/12 08:17:56;;;;;;;37.08;14.90;;;;;;;;;;5103878;27;20059;-77
2022/12/12 08:20:22;;;;;;;40.03;14.40;;;;;;;;;;5103805;27;20043;-77
2022/12/12 08:22:48;;;;;;;37.72;14.68;;;;;;;;;;5099572;27;20052;-77
2022/12/12 08:25:15;;;;;;;35.28;14.25;;;;;;;;;;5108660;28;20125;-78
2022/12/12 08:27:41;;;;;;;39.63;15.77;;;;;;;;;;5114097;27;20094;-77
2022/12/12 08:30:08;;;;;;;40.92;15.32;;;;;;;;;;5108196;27;20050;-77
2022/12/12 08:32:35;;;;;;;45.53;15.95;;;;;;;;;;5105469;27;20048;-78
2022/12/12 08:35:02;;;;;;;35.30;15.05;;;;;;;;;;5102828;27;20498;-77
2022/12/12 08:37:28;;;;;;;40.47;15.63;;;;;;;;;;5103128;27;20127;-78
2022/12/12 08:39:55;;;;;;;38.22;15.05;;;;;;;;;;5093863;28;20056;-78
2022/12/12 08:42:21;;;;;;;38.88;15.73;;;;;;;;;;5100022;27;20094;-77
2022/12/12 08:44:48;;;;;;;35.25;15.05;;;;;;;;;;5087080;28;20048;-78
2022/12/12 08:47:14;;;;;;;42.00;15.32;;;;;;;;;;5098921;28;20071;-78
2022/12/12 08:49:41;;;;;;;41.42;15.27;;;;;;;;;;5092708;28;20053;-76
2022/12/12 08:52:08;;;;;;;37.70;15.07;;;;;;;;;;5107406;28;20094;-76
2022/12/12 08:54:36;;;;;;;43.63;17.27;;;;;;;;;;5080579;28;20061;-76
2022/12/12 08:57:03;;;;;;;42.22;16.65;;;;;;;;;;5089203;28;20049;-77
2022/12/12 08:59:29;;;;;;;36.85;15.20;;;;;;;;;;5102240;28;20129;-77
2022/12/12 09:01:56;;;;;;;47.03;17.50;;;;;;;;;;5104172;27;20056;-77
2022/12/12 09:04:22;;;;;;;41.28;16.80;;;;;;;;;;5091961;27;20052;-77
2022/12/12 09:06:49;;;;;;;45.78;16.92;;;;;;;;;;5109330;27;20056;-77
2022/12/12 09:09:15;;;;;;;41.92;16.63;;;;;;;;;;5103644;28;20052;-77
2022/12/12 09:11:42;;;;;;;47.63;18.40;;;;;;;;;;5086734;28;20166;-77
2022/12/12 09:14:08;;;;;;;41.08;16.25;;;;;;;;;;5093281;27;20059;-77
2022/12/12 09:16:35;;;;;;;44.63;16.85;;;;;;;;;;5085339;28;20049;-76
2022/12/12 09:19:01;;;;;;;40.78;15.50;;;;;;;;;;5074184;28;20056;-77
2022/12/12 09:21:28;;;;;;;38.00;16.23;;;;;;;;;;5088330;28;20458;-77
2022/12/12 09:23:54;;;;;;;45.05;16.77;;;;;;;;;;5091695;28;20055;-77
2022/12/12 09:26:20;;;;;;;41.20;15.70;;;;;;;;;;5086182;28;20056;-77
2022/12/12 09:28:47;;;;;;;43.33;16.65;;;;;;;;;;5086704;28;20071;-76
2022/12/12 09:31:13;;;;;;;41.70;17.88;;;;;;;;;;5098656;27;20055;-77
2022/12/12 09:33:41;;;;;;;45.45;16.65;;;;;;;;;;5103767;27;20056;-77
2022/12/12 09:36:08;;;;;;;44.55;17.60;;;;;;;;;;5083227;27;20527;-77
2022/12/12 09:38:35;;;;;;;43.83;17.10;;;;;;;;;;5096987;27;20087;-77
2022/12/12 09:41:09;;;;;;;42.78;16.40;;;;;;;;;;5109130;27;20063;-77
2022/12/12 09:43:58;;;;;;;40.85;16.15;;;;;;;;;;5105802;27;20056;-77
2022/12/12 09:46:30;;;;;;;42.20;17.13;;;;;;;;;;5099822;28;20051;-77
2022/12/12 09:49:19;;;;;;;42.35;17.52;;;;;;;;;;5086008;28;20059;-77
2022/12/12 09:51:48;;;;;;;40.70;17.75;;;;;;;;;;5081585;27;20048;-77
2022/12/12 09:54:16;;;;;;;45.90;17.05;;;;;;;;;;5100195;27;20057;-77
2022/12/12 09:56:51;;;;;;;43.13;18.13;;;;;;;;;;5080177;28;20594;-77
2022/12/12 09:59:22;;;;;;;42.85;16.20;;;;;;;;;;5099092;27;20056;-77
2022/12/12 10:02:02;;;;;;;44.08;17.50;;;;;;;;;;5104662;28;20499;-77
2022/12/12 10:04:39;;;;;;;38.85;16.13;;;;;;;;;;5079354;28;20052;-76
2022/12/12 10:07:11;;;;;;;43.83;16.88;;;;;;;;;;5087301;28;20105;-76
2022/12/12 10:09:49;;;;;;;36.83;15.48;;;;;;;;;;5104199;27;20078;-77
2022/12/12 10:12:17;;;;;;;39.15;16.95;;;;;;;;;;5086280;28;20064;-77
2022/12/12 10:14:59;;;;;;;41.08;16.35;;;;;;;;;;5112022;27;20048;-77
2022/12/12 10:17:28;;;;;;;38.45;16.00;;;;;;;;;;5104433;27;20067;-77
2022/12/12 10:19:57;;;;;;;38.80;16.73;;;;;;;;;;5112387;27;20521;-77
2022/12/12 10:22:39;;;;;;;38.47;16.15;;;;;;;;;;5099065;27;20155;-76
2022/12/12 10:25:18;;;;;;;44.42;15.70;;;;;;;;;;5102335;27;20084;-78
2022/12/12 10:27:45;;;;;;;40.58;15.93;;;;;;;;;;5100608;27;20547;-77
2022/12/12 10:30:16;;;;;;;34.47;15.73;;;;;;;;;;5096971;28;20062;-77
2022/12/12 10:33:00;;;;;;;33.72;15.10;;;;;;;;;;5084452;28;20132;-77
2022/12/12 10:35:37;;;;;;;39.03;16.15;;;;;;;;;;5080076;28;20076;-77
2022/12/12 10:38:22;;;;;;;40.08;16.23;;;;;;;;;;5078472;28;20817;-77
2022/12/12 10:41:09;;;;;;;37.00;15.57;;;;;;;;;;5098939;27;20056;-77
2022/12/12 10:43:47;;;;;;;36.88;15.75;;;;;;;;;;5107395;27;20051;-77
2022/12/12 10:46:23;;;;;;;36.70;16.00;;;;;;;;;;5088772;28;20142;-77
2022/12/12 10:48:50;;;;;;;37.40;15.23;;;;;;;;;;5096004;27;20098;-77
2022/12/12 10:51:19;;;;;;;36.00;16.00;;;;;;;;;;5104512;28;20056;-77
2022/12/12 10:53:45;;;;;;;35.00;15.90;;;;;;;;;;5101798;27;20197;-77
2022/12/12 10:56:22;;;;;;;33.70;14.27;;;;;;;;;;5095330;28;20152;-77
2022/12/12 10:58:54;;;;;;;37.97;14.90;;;;;;;;;;5090296;28;20092;-77
2022/12/12 11:01:23;;;;;;;39.95;15.45;;;;;;;;;;5096577;28;20139;-77
2022/12/12 11:04:12;;;;;;;34.92;15.57;;;;;;;;;;5092123;28;20530;-76
2022/12/12 11:06:44;;;;;;;33.17;14.57;;;;;;;;;;5088267;28;20052;-76
2022/12/12 11:09:18;;;;;;;33.63;14.90;;;;;;;;;;5103308;27;20218;-78
2022/12/12 11:12:04;;;;;;;32.63;14.25;;;;;;;;;;5096479;28;20051;-78
2022/12/12 11:14:31;;;;;;;32.22;14.40;;;;;;;;;;5102719;28;20044;-78
2022/12/12 11:16:57;;;;;;;33.80;14.20;;;;;;;;;;5114147;27;20616;-78
2022/12/12 11:19:25;;;;;;;37.90;15.15;;;;;;;;;;5104570;28;20067;-78
2022/12/12 11:21:53;;;;;;;31.05;14.63;;;;;;;;;;5099739;28;20062;-78
2022/12/12 11:24:39;;;;;;;31.23;14.10;;;;;;;;;;5111353;28;20688;-78
2022/12/12 11:27:06;;;;;;;35.15;13.68;;;;;;;;;;5096076;28;20052;-78
2022/12/12 11:30:01;;;;;;;32.50;14.82;;;;;;;;;;5105507;27;20055;-78
2022/12/12 11:32:31;;;;;;;35.95;13.93;;;;;;;;;;5109489;27;20066;-78
2022/12/12 11:34:59;;;;;;;30.88;12.27;;;;;;;;;;5097151;27;20057;-78
2022/12/12 11:37:27;;;;;;;30.05;13.80;;;;;;;;;;5089726;28;20080;-78
2022/12/12 11:39:55;;;;;;;37.10;14.65;;;;;;;;;;5114580;27;20056;-78
2022/12/12 11:42:21;;;;;;;33.40;14.07;;;;;;;;;;5129575;27;20363;-78
2022/12/12 11:44:56;;;;;;;32.42;13.88;;;;;;;;;;5104977;27;20063;-77
2022/12/12 11:47:25;;;;;;;29.90;13.20;;;;;;;;;;5088797;28;20045;-77
2022/12/12 11:49:53;;;;;;;29.33;12.60;;;;;;;;;;5089784;28;20059;-77
2022/12/12 11:52:22;;;;;;;33.25;12.88;;;;;;;;;;5090687;28;20479;-77
2022/12/12 11:54:48;;;;;;;31.00;12.75;;;;;;;;;;5106640;27;20060;-77
2022/12/12 11:57:22;;;;;;;31.13;13.68;;;;;;;;;;5106017;28;20060;-77
2022/12/12 11:59:49;;;;;;;30.48;12.98;;;;;;;;;;5108193;28;20052;-77
2022/12/12 12:02:34;;;;;;;29.92;13.02;;;;;;;;;;5099197;28;20131;-77
2022/12/12 12:05:36;;;;;;;24.52;11.10;;;;;;;;;;5088798;28;20063;-77
2022/12/12 12:08:08;;;;;;;28.98;12.95;;;;;;;;;;5046212;28;20065;-77
2022/12/12 12:10:40;;;;;;;28.30;11.55;;;;;;;;;;5082205;28;20056;-77
2022/12/12 12:13:16;;;;;;;30.33;12.18;;;;;;;;;;5081679;28;20135;-78
2022/12/12 12:16:05;;;;;;;27.13;12.05;;;;;;;;;;5099381;28;20052;-77
2022/12/12 12:18:46;;;;;;;28.98;12.25;;;;;;;;;;5088758;28;20049;-77
2022/12/12 12:21:39;;;;;;;28.63;11.40;;;;;;;;;;5088688;27;20060;-77
2022/12/12 12:24:05;;;;;;;25.40;11.77;;;;;;;;;;5076451;28;20076;-77
2022/12/12 12:26:38;;;;;;;27.38;12.55;;;;;;;;;;5089332;28;20059;-78
2022/12/12 12:29:10;;;;;;;28.90;10.82;;;;;;;;;;5089577;28;20052;-78
2022/12/12 12:31:42;;;;;;;32.55;13.93;;;;;;;;;;5088681;28;20044;-78
2022/12/12 12:34:19;;;;;;;26.45;11.15;;;;;;;;;;5076256;28;20048;-78
2022/12/12 12:37:04;;;;;;;23.23;10.88;;;;;;;;;;5115626;27;20490;-78
2022/12/12 12:39:37;;;;;;;23.85;11.15;;;;;;;;;;5093715;27;20036;-78
2022/12/12 12:42:17;;;;;;;24.52;10.38;;;;;;;;;;5099094;28;20063;-78
2022/12/12 12:44:49;;;;;;;26.27;12.32;;;;;;;;;;5104110;28;20048;-78
2022/12/12 12:47:38;;;;;;;27.60;10.98;;;;;;;;;;5098218;27;20052;-78
2022/12/12 12:50:14;;;;;;;21.58;10.32;;;;;;;;;;5096257;28;20052;-78
2022/12/12 12:52:56;;;;;;;27.55;10.73;;;;;;;;;;5101369;28;20083;-78
2022/12/12 12:55:31;;;;;;;23.25;10.30;;;;;;;;;;5097963;28;20056;-78
2022/12/12 12:57:58;;;;;;;24.15;10.32;;;;;;;;;;5101492;27;20522;-78
2022/12/12 13:00:27;;;;;;;21.95;9.30;;;;;;;;;;5100609;27;20060;-80
2022/12/12 13:03:03;;;;;;;21.17;10.27;;;;;;;;;;5110020;28;20050;-78
2022/12/12 13:05:42;;;;;;;24.48;11.10;;;;;;;;;;5091902;28;20512;-78
2022/12/12 13:08:21;;;;;;;25.10;10.73;;;;;;;;;;5088957;28;20053;-78
2022/12/12 13:10:53;;;;;;;24.20;10.45;;;;;;;;;;5092457;27;20080;-78
2022/12/12 13:13:22;;;;;;;22.85;9.85;;;;;;;;;;5109865;27;20542;-78
2022/12/12 13:16:09;;;;;;;22.45;10.18;;;;;;;;;;5110094;27;20443;-78
2022/12/12 13:18:35;;;;;;;21.67;9.50;;;;;;;;;;5091116;28;20501;-78
2022/12/12 13:21:34;;;;;;;28.45;12.07;;;;;;;;;;5078590;27;20052;-78
2022/12/12 13:24:00;;;;;;;23.48;10.63;;;;;;;;;;5098026;27;20490;-78
2022/12/12 13:26:26;;;;;;;24.17;11.05;;;;;;;;;;5088285;28;20123;-78
2022/12/12 13:28:57;;;;;;;23.15;10.05;;;;;;;;;;5092959;28;20133;-78
2022/12/12 13:31:29;;;;;;;21.08;9.25;;;;;;;;;;5109467;27;20064;-78
2022/12/12 13:34:00;;;;;;;22.27;10.23;;;;;;;;;;5082609;27;20052;-80
2022/12/12 13:36:30;;;;;;;23.88;9.68;;;;;;;;;;5126698;27;20813;-80
2022/12/12 13:38:58;;;;;;;19.13;8.90;;;;;;;;;;5102964;28;20155;-79
2022/12/12 13:41:25;;;;;;;20.00;9.23;;;;;;;;;;5107992;28;20135;-79
2022/12/12 13:43:56;;;;;;;21.77;9.77;;;;;;;;;;5090856;28;20121;-79
2022/12/12 13:46:23;;;;;;;21.17;9.75;;;;;;;;;;5076474;28;20088;-78
2022/12/12 13:49:10;;;;;;;23.02;9.70;;;;;;;;;;5089440;27;20148;-78
2022/12/12 13:51:38;;;;;;;20.40;9.10;;;;;;;;;;5125117;27;20528;-78
2022/12/12 13:54:04;;;;;;;20.77;9.23;;;;;;;;;;5130805;27;20572;-78
2022/12/12 13:56:41;;;;;;;24.88;9.30;;;;;;;;;;5115368;27;20983;-78
2022/12/12 13:59:25;;;;;;;20.58;8.60;;;;;;;;;;5097182;27;20506;-78
2022/12/12 14:02:10;;;;;;;22.05;8.68;;;;;;;;;;5110446;28;20051;-78
2022/12/12 14:04:42;;;;;;;20.88;9.13;;;;;;;;;;5104630;27;20052;-78
2022/12/12 14:07:11;;;;;;;23.05;9.50;;;;;;;;;;5086181;27;20063;-78
2022/12/12 14:09:39;;;;;;;21.95;9.52;;;;;;;;;;5094862;27;20069;-78
2022/12/12 14:12:16;;;;;;;23.95;9.95;;;;;;;;;;5090893;27;20052;-78
2022/12/12 14:14:50;;;;;;;24.10;10.95;;;;;;;;;;5102792;27;20055;-78
2022/12/12 14:17:20;;;;;;;26.55;11.13;;;;;;;;;;5103346;27;20059;-78
2022/12/12 14:19:51;;;;;;;28.75;11.57;;;;;;;;;;5096516;27;20060;-78
2022/12/12 14:22:27;;;;;;;32.55;12.73;;;;;;;;;;5105734;27;20048;-77
2022/12/12 14:24:58;;;;;;;29.92;12.38;;;;;;;;;;5094544;28;20052;-77
2022/12/12 14:27:43;;;;;;;27.60;11.13;;;;;;;;;;5087611;28;20084;-78
2022/12/12 14:30:16;;;;;;;32.10;11.50;;;;;;;;;;5108527;27;20044;-78
2022/12/12 14:32:53;;;;;;;27.77;10.90;;;;;;;;;;5086633;27;20493;-78
2022/12/12 14:35:23;;;;;;;25.92;11.30;;;;;;;;;;5072657;28;20056;-78
2022/12/12 14:37:53;;;;;;;32.33;11.95;;;;;;;;;;5093666;27;20058;-78
2022/12/12 14:40:24;;;;;;;30.27;11.77;;;;;;;;;;5088780;28;20469;-78
2022/12/12 14:42:52;;;;;;;;;;;;;;;;;;5078658;28;20048;-78
2022/12/12 14:45:51;;;;;;;26.73;10.73;;;;;;;;;;5088231;28;19971;-78
2022/12/12 14:48:29;;;;;;;23.83;11.80;;;;;;;;;;5089139;28;20068;-78
2022/12/12 14:51:11;;;;;;;28.95;11.85;;;;;;;;;;5092347;27;20056;-78